createdAt,value
2023-03-13T00:57:17.458Z,13.10
2023-03-13T01:00:07.268Z,12.90
2023-03-13T01:02:55.761Z,12.70
2023-03-13T01:05:44.606Z,12.50
2023-03-13T01:08:33.589Z,12.40
2023-03-13T01:11:23.834Z,12.40
2023-03-13T01:14:16.629Z,12.50
2023-03-13T01:17:05.252Z,12.50
2023-03-13T01:19:56.889Z,12.60
2023-03-13T01:22:45.400Z,12.80
2023-03-13T01:25:37.400Z,12.90
2023-03-13T01:28:27.529Z,12.90
2023-03-13T01:31:19.530Z,12.90
2023-03-13T01:34:08.364Z,12.90
2023-03-13T01:36:56.899Z,13.00
2023-03-13T01:39:45.387Z,13.10
2023-03-13T01:42:50.773Z,13.00
2023-03-13T01:46:13.682Z,12.90
2023-03-13T01:49:06.630Z,12.70
2023-03-13T01:51:59.502Z,12.50
2023-03-13T01:54:52.932Z,12.40
2023-03-13T01:57:45.306Z,12.40
2023-03-13T02:00:36.551Z,12.10
2023-03-13T02:03:25.299Z,12.10
2023-03-13T02:06:15.222Z,12.20
2023-03-13T02:09:09.024Z,12.30
2023-03-13T02:12:03.488Z,12.40
2023-03-13T02:14:52.618Z,12.50
2023-03-13T02:17:42.437Z,12.60
2023-03-13T02:20:30.883Z,12.60
2023-03-13T02:23:28.046Z,12.70
2023-03-13T02:26:17.888Z,12.80
2023-03-13T02:29:06.499Z,12.80
2023-03-13T02:31:55.311Z,12.90
2023-03-13T02:34:45.671Z,12.90
2023-03-13T02:37:34.841Z,13.70
2023-03-13T02:40:27.614Z,12.90
2023-03-13T02:43:21.560Z,12.80
2023-03-13T02:46:13.064Z,12.80
2023-03-13T02:49:21.243Z,12.80
2023-03-13T02:52:15.255Z,12.80
2023-03-13T02:55:07.840Z,12.80
2023-03-13T02:57:56.464Z,12.80
2023-03-13T03:00:46.578Z,12.80
2023-03-13T03:03:36.215Z,14.30
2023-03-13T03:06:24.761Z,12.70
2023-03-13T03:09:13.344Z,12.70
2023-03-13T03:12:01.788Z,12.60
2023-03-13T03:14:50.292Z,12.60
2023-03-13T03:17:40.282Z,12.60
2023-03-13T03:20:28.702Z,12.60
2023-03-13T03:23:17.133Z,12.50
2023-03-13T03:26:07.689Z,12.50
2023-03-13T03:28:56.355Z,12.50
2023-03-13T03:31:44.838Z,12.50
2023-03-13T03:34:34.657Z,12.50
2023-03-13T03:37:23.090Z,12.40
2023-03-13T03:40:13.216Z,12.50
2023-03-13T03:43:01.632Z,12.50
2023-03-13T03:45:50.110Z,12.40
2023-03-13T03:48:38.703Z,12.40
2023-03-13T03:51:28.727Z,12.30
2023-03-13T03:54:17.185Z,12.30
2023-03-13T03:57:05.832Z,12.20
2023-03-13T03:59:54.253Z,12.50
2023-03-13T04:02:42.754Z,12.10
2023-03-13T04:05:31.334Z,12.10
2023-03-13T04:08:21.237Z,12.10
2023-03-13T04:11:09.904Z,12.10
2023-03-13T04:13:58.364Z,12.10
2023-03-13T04:16:46.921Z,12.00
2023-03-13T04:19:35.369Z,11.90
2023-03-13T04:22:23.818Z,11.50
2023-03-13T04:25:13.638Z,11.50
2023-03-13T04:28:02.190Z,11.80
2023-03-13T04:30:50.692Z,11.70
2023-03-13T04:33:39.115Z,11.80
2023-03-13T04:36:27.603Z,11.80
2023-03-13T04:39:16.148Z,11.80
2023-03-13T04:42:06.087Z,11.80
2023-03-13T04:44:54.505Z,12.00
2023-03-13T04:47:42.946Z,11.90
2023-03-13T04:50:31.430Z,11.90
2023-03-13T04:53:20.253Z,11.90
2023-03-13T04:56:08.740Z,11.70
2023-03-13T04:58:58.534Z,11.90
2023-03-13T05:01:47.177Z,11.90
2023-03-13T05:04:35.696Z,11.10
2023-03-13T05:07:24.199Z,11.40
2023-03-13T05:10:12.925Z,11.60
2023-03-13T05:13:01.418Z,11.70
2023-03-13T05:15:51.334Z,11.80
2023-03-13T05:18:40.382Z,11.90
2023-03-13T05:21:28.889Z,12.00
2023-03-13T05:24:17.315Z,11.90
2023-03-13T05:27:05.769Z,11.90
2023-03-13T05:29:54.266Z,12.00
2023-03-13T05:32:44.173Z,12.10
2023-03-13T05:35:32.723Z,12.10
2023-03-13T05:38:21.263Z,12.10
2023-03-13T05:41:09.678Z,12.20
2023-03-13T05:43:58.120Z,12.30
2023-03-13T05:46:46.630Z,12.30
2023-03-13T05:49:36.529Z,12.40
2023-03-13T05:52:25.222Z,12.40
2023-03-13T05:55:13.741Z,12.40
2023-03-13T05:58:02.219Z,12.40
2023-03-13T06:00:50.741Z,12.40
2023-03-13T06:03:39.370Z,12.50
2023-03-13T06:06:29.223Z,12.50
2023-03-13T06:09:17.749Z,12.60
2023-03-13T06:12:06.576Z,12.50
2023-03-13T06:14:55.019Z,12.50
2023-03-13T06:17:43.499Z,12.60
2023-03-13T06:20:32.031Z,12.50
2023-03-13T06:23:21.832Z,12.50
2023-03-13T06:26:10.262Z,12.40
2023-03-13T06:28:58.692Z,12.30
2023-03-13T06:31:47.360Z,12.30
2023-03-13T06:34:36.008Z,12.30
2023-03-13T06:37:24.458Z,12.20
2023-03-13T06:40:14.956Z,12.40
2023-03-13T06:43:03.448Z,12.60
2023-03-13T06:45:52.049Z,12.60
2023-03-13T06:48:40.436Z,12.60
2023-03-13T06:51:28.914Z,12.50
2023-03-13T06:54:17.372Z,12.50
2023-03-13T06:57:07.357Z,12.60
2023-03-13T06:59:55.807Z,11.70
2023-03-13T07:02:44.226Z,12.70
2023-03-13T07:05:32.787Z,12.80
2023-03-13T07:08:21.183Z,12.90
2023-03-13T07:11:18.437Z,13.00
2023-03-13T07:14:16.534Z,13.00
2023-03-13T07:17:05.796Z,13.10
2023-03-13T07:19:54.368Z,13.00
2023-03-13T07:22:42.889Z,13.10
2023-03-13T07:25:31.357Z,13.10
2023-03-13T07:28:20.174Z,13.20
2023-03-13T07:31:13.251Z,13.20
2023-03-13T07:34:01.737Z,13.20
2023-03-13T07:36:50.209Z,13.30
2023-03-13T07:39:38.794Z,13.50
2023-03-13T07:42:27.273Z,13.50
2023-03-13T07:45:15.887Z,13.60
2023-03-13T07:48:35.697Z,13.60
2023-03-13T07:51:42.142Z,13.70
2023-03-13T07:54:31.250Z,13.80
2023-03-13T07:57:19.676Z,13.90
2023-03-13T08:00:16.432Z,14.10
2023-03-13T08:03:07.497Z,13.10
2023-03-13T08:06:00.432Z,14.40
2023-03-13T08:08:49.272Z,14.40
2023-03-13T08:11:40.422Z,14.50
2023-03-13T08:14:28.960Z,14.40
2023-03-13T08:17:17.387Z,14.30
2023-03-13T08:20:10.027Z,14.30
2023-03-13T08:22:59.028Z,14.20
2023-03-13T08:25:47.427Z,14.40
2023-03-13T08:28:36.754Z,14.20
2023-03-13T08:31:27.043Z,14.10
2023-03-13T08:34:16.617Z,14.20
2023-03-13T08:37:06.532Z,14.30
2023-03-13T08:39:56.743Z,14.40
2023-03-13T08:42:45.238Z,14.30
2023-03-13T08:45:33.681Z,14.40
2023-03-13T08:48:22.122Z,14.50
2023-03-13T08:51:12.752Z,14.50
2023-03-13T08:54:03.457Z,14.50
2023-03-13T08:56:51.982Z,14.60
2023-03-13T08:59:40.431Z,14.80
2023-03-13T09:02:28.939Z,14.90
2023-03-13T09:05:17.544Z,15.00
2023-03-13T09:08:06.491Z,15.20
2023-03-13T09:11:00.633Z,15.30
2023-03-13T09:13:52.134Z,15.40
2023-03-13T09:16:40.783Z,15.40
2023-03-13T09:19:29.228Z,15.50
2023-03-13T09:22:17.711Z,15.60
2023-03-13T09:25:06.720Z,15.60
2023-03-13T09:27:56.548Z,15.70
2023-03-13T09:30:45.108Z,15.70
2023-03-13T09:33:33.544Z,15.70
2023-03-13T09:36:23.791Z,15.80
2023-03-13T09:39:12.324Z,15.80
2023-03-13T09:42:09.664Z,15.80
2023-03-13T09:45:04.521Z,15.70
2023-03-13T09:47:57.881Z,15.80
2023-03-13T09:50:55.820Z,15.90
2023-03-13T09:53:47.867Z,15.80
2023-03-13T09:56:43.060Z,15.90
2023-03-13T09:59:50.218Z,15.90
2023-03-13T10:02:40.779Z,15.90
2023-03-13T10:05:32.040Z,15.80
2023-03-13T10:08:23.369Z,15.80
2023-03-13T10:11:18.290Z,15.80
2023-03-13T10:14:12.897Z,15.80
2023-03-13T10:17:08.402Z,15.70
2023-03-13T10:20:08.571Z,15.70
2023-03-13T10:23:00.472Z,15.70
2023-03-13T10:25:48.985Z,15.80
2023-03-13T10:28:37.479Z,15.80
2023-03-13T10:31:32.700Z,15.90
2023-03-13T10:34:21.602Z,16.00
2023-03-13T10:37:14.931Z,16.30
2023-03-13T10:40:22.779Z,16.30
2023-03-13T10:43:19.015Z,16.60
2023-03-13T10:46:10.160Z,16.90
2023-03-13T10:49:01.673Z,17.00
2023-03-13T10:51:52.347Z,17.30
2023-03-13T10:54:46.622Z,17.60
2023-03-13T10:57:36.610Z,17.90
2023-03-13T11:00:36.741Z,17.90
2023-03-13T11:03:33.445Z,17.90
2023-03-13T11:06:27.349Z,17.80
2023-03-13T11:09:17.955Z,17.80
2023-03-13T11:12:13.155Z,17.70
2023-03-13T11:15:03.126Z,17.50
2023-03-13T11:17:58.348Z,17.40
2023-03-13T11:32:24.019Z,17.80
2023-03-13T11:35:35.356Z,18.00
2023-03-13T11:38:30.260Z,18.30
2023-03-13T11:41:43.090Z,18.60
2023-03-13T11:44:45.868Z,18.90
2023-03-13T11:47:45.207Z,19.10
2023-03-13T11:50:48.393Z,19.30
2023-03-13T11:53:48.604Z,19.40
2023-03-13T11:56:42.926Z,19.60
2023-03-13T11:59:42.073Z,19.90
2023-03-13T12:02:36.995Z,20.10
2023-03-13T12:05:28.664Z,20.30
2023-03-13T12:08:23.078Z,20.30
2023-03-13T12:11:19.070Z,20.50
2023-03-13T12:14:13.310Z,20.70
2023-03-13T12:19:59.865Z,21.00
2023-03-13T12:22:56.045Z,21.00
2023-03-13T12:25:50.308Z,21.10
2023-03-13T12:28:44.096Z,21.30
2023-03-13T12:31:37.371Z,21.50
2023-03-13T12:34:32.516Z,21.60
2023-03-13T12:37:30.684Z,21.60
2023-03-13T12:40:28.453Z,21.40
2023-03-13T12:43:20.881Z,21.00
2023-03-13T12:46:32.068Z,20.60
2023-03-13T12:49:52.305Z,20.30
2023-03-13T12:53:11.484Z,19.90
2023-03-13T13:04:45.261Z,18.90
2023-03-13T13:07:35.618Z,18.80
2023-03-13T13:10:26.377Z,18.60
2023-03-13T13:13:31.488Z,18.60
2023-03-13T13:16:23.082Z,18.60
2023-03-13T13:19:48.787Z,18.50
2023-03-13T13:22:52.694Z,18.60
2023-03-13T13:25:41.616Z,18.60
2023-03-13T13:28:37.018Z,18.60
2023-03-13T13:31:57.138Z,18.90
2023-03-13T13:35:01.864Z,19.00
2023-03-13T13:37:50.764Z,18.90
2023-03-13T13:40:39.441Z,18.80
2023-03-13T13:43:32.216Z,19.00
2023-03-13T13:46:28.634Z,19.20
2023-03-13T14:07:05.490Z,20.40
2023-03-13T14:10:02.305Z,20.50
2023-03-13T14:18:35.201Z,21.30
2023-03-13T14:21:25.111Z,21.50
2023-03-13T14:24:17.122Z,21.40
2023-03-13T14:27:18.317Z,21.30
2023-03-13T14:32:58.115Z,20.60
2023-03-13T14:35:47.103Z,20.50
2023-03-13T14:38:35.633Z,20.30
2023-03-13T14:41:25.718Z,20.40
2023-03-13T14:44:24.694Z,20.30
2023-03-13T14:47:24.577Z,20.10
2023-03-13T15:27:53.211Z,18.30
2023-03-13T15:30:41.698Z,18.30
2023-03-13T15:33:31.081Z,18.30
2023-03-13T15:36:20.901Z,18.30
2023-03-13T15:39:15.043Z,18.30
2023-03-13T15:42:03.475Z,18.40
2023-03-13T15:44:52.024Z,18.40
2023-03-13T15:47:40.440Z,18.30
2023-03-13T15:50:31.058Z,18.40
2023-03-13T15:53:23.873Z,18.30
2023-03-13T22:54:51.261Z,15.60
2023-03-13T22:57:41.113Z,15.60
2023-03-13T23:00:29.849Z,15.50
2023-03-13T23:03:18.824Z,15.40
2023-03-13T23:06:08.331Z,15.40
2023-03-13T23:08:56.809Z,15.40
2023-03-13T23:11:45.329Z,15.40
2023-03-13T23:14:35.136Z,15.30
2023-03-13T23:17:23.791Z,15.30
2023-03-13T23:20:13.945Z,15.30
2023-03-13T23:23:02.373Z,15.30
2023-03-13T23:25:51.018Z,15.40
2023-03-13T23:28:40.698Z,15.40
2023-03-13T23:31:30.807Z,14.30
2023-03-13T23:34:21.886Z,15.40
2023-03-13T23:37:10.367Z,15.30
2023-03-13T23:39:59.270Z,15.30
2023-03-13T23:42:50.107Z,15.30
2023-03-13T23:45:38.537Z,15.30
2023-03-13T23:48:28.525Z,15.20
2023-03-13T23:51:17.107Z,15.20
2023-03-13T23:54:05.849Z,15.20
2023-03-13T23:56:54.265Z,14.90
2023-03-13T23:59:42.751Z,15.20
